Time;durP1;ratioP1;P1;durP2;ratioP2;P2;SDS_P1;SDS_P2;PMS_P1;PMS_P2;Temp;Humidity;BMP_temperature;BMP_pressure;BME280_temperature;BME280_humidity;BME280_pressure;Samples;Min_cycle;Max_cycle;Signal;HPM_P1;HPM_P2
2021/10/10 00:01:37;;;;;;;16.50;9.80;;;;;;;2.18;68.29;97948.23;115632;1184;28355;-82
2021/10/10 00:04:08;;;;;;;19.40;11.00;;;;;;;2.18;68.40;97947.16;115604;1199;38969;-80
2021/10/10 00:06:39;;;;;;;22.20;10.10;;;;;;;2.26;68.41;97946.30;115618;1199;64477;-81
2021/10/10 00:09:10;;;;;;;17.70;9.50;;;;;;;2.31;68.54;97949.83;115592;1184;28043;-80
2021/10/10 00:11:41;;;;;;;13.60;8.30;;;;;;;2.38;68.67;97947.35;115584;1198;29926;-81
2021/10/10 00:14:12;;;;;;;16.90;8.80;;;;;;;2.43;68.49;97946.79;115585;1199;29749;-80
2021/10/10 00:16:43;;;;;;;16.40;9.20;;;;;;;2.35;68.55;97943.04;115579;1199;29159;-80
2021/10/10 00:19:13;;;;;;;19.40;9.10;;;;;;;2.25;68.74;97940.69;115597;1199;27913;-81
2021/10/10 00:21:44;;;;;;;17.20;8.80;;;;;;;2.23;69.22;97936.39;115679;1198;42220;-80
2021/10/10 00:24:15;;;;;;;17.90;9.40;;;;;;;2.27;68.93;97937.57;115677;1199;29398;-80
2021/10/10 00:26:46;;;;;;;17.60;9.20;;;;;;;2.26;69.03;97934.43;115636;1199;30082;-80
2021/10/10 00:29:18;;;;;;;16.00;9.60;;;;;;;2.30;68.97;97937.62;115698;1199;26235;-80
2021/10/10 00:31:49;;;;;;;15.40;8.90;;;;;;;2.17;68.73;97935.93;115672;1199;29722;-80
2021/10/10 00:34:20;;;;;;;15.40;8.60;;;;;;;2.09;68.67;97936.44;115623;1198;41970;-80
2021/10/10 00:36:51;;;;;;;14.30;8.80;;;;;;;2.07;68.98;97936.75;115620;1199;28419;-81
2021/10/10 00:39:21;;;;;;;16.70;9.30;;;;;;;2.09;69.07;97931.65;115612;1199;25944;-79
2021/10/10 00:41:52;;;;;;;14.30;8.70;;;;;;;1.96;69.33;97930.19;115616;1193;27706;-80
2021/10/10 00:44:23;;;;;;;16.70;9.10;;;;;;;1.85;69.61;97928.59;115626;1199;25090;-80
2021/10/10 00:46:54;;;;;;;15.80;8.70;;;;;;;1.79;69.74;97928.58;115613;1199;29095;-80
2021/10/10 00:49:25;;;;;;;15.30;8.40;;;;;;;1.76;69.70;97922.81;115620;1199;26878;-79
2021/10/10 00:51:57;;;;;;;16.70;9.20;;;;;;;1.83;69.83;97919.73;115529;1199;28249;-80
2021/10/10 00:54:31;;;;;;;18.50;9.60;;;;;;;1.90;69.81;97918.72;115403;1199;47834;-80
2021/10/10 00:57:05;;;;;;;18.90;9.90;;;;;;;1.98;69.75;97918.17;115582;1199;30067;-80
2021/10/10 00:59:43;;;;;;;18.10;8.90;;;;;;;2.03;69.57;97912.05;115603;1199;49865;-81
2021/10/10 01:02:14;;;;;;;16.00;9.30;;;;;;;1.88;69.86;97913.69;115488;1192;28621;-80
2021/10/10 01:04:45;;;;;;;16.90;9.40;;;;;;;1.80;69.86;97906.66;115248;1200;28816;-81
2021/10/10 01:07:15;;;;;;;21.10;10.30;;;;;;;1.88;69.84;97909.46;115588;1199;28485;-80
2021/10/10 01:09:46;;;;;;;18.80;9.30;;;;;;;1.93;69.81;97908.40;115531;1198;25442;-80
2021/10/10 01:12:17;;;;;;;16.40;8.50;;;;;;;1.89;69.50;97902.98;115614;1199;37601;-81
2021/10/10 01:14:48;;;;;;;16.70;9.30;;;;;;;1.77;69.68;97908.50;115636;1199;27657;-80
2021/10/10 01:17:19;;;;;;;17.30;9.30;;;;;;;1.71;70.04;97902.66;115594;1199;28881;-80
2021/10/10 01:19:51;;;;;;;18.80;9.70;;;;;;;1.66;70.14;97903.77;115390;1199;38052;-78
2021/10/10 01:22:22;;;;;;;17.60;10.20;;;;;;;1.72;70.20;97901.35;115563;1199;27917;-79
2021/10/10 01:24:53;;;;;;;16.70;10.20;;;;;;;1.80;70.40;97899.73;115588;1199;28937;-81
2021/10/10 01:27:25;;;;;;;16.90;9.80;;;;;;;1.80;70.22;97900.79;115524;1199;29627;-80
2021/10/10 01:29:56;;;;;;;18.40;10.20;;;;;;;1.84;70.14;97896.29;115561;1199;29259;-80
2021/10/10 01:32:27;;;;;;;18.50;9.50;;;;;;;1.71;70.13;97892.80;115472;1199;28981;-81
2021/10/10 01:34:58;;;;;;;16.30;9.90;;;;;;;1.54;70.48;97889.18;115417;1193;30794;-80
2021/10/10 01:37:29;;;;;;;17.20;9.20;;;;;;;1.46;70.99;97887.55;115182;1199;33470;-80
2021/10/10 01:40:00;;;;;;;16.70;8.50;;;;;;;1.48;71.07;97882.91;115107;1200;30860;-81
2021/10/10 01:42:30;;;;;;;19.50;10.40;;;;;;;1.52;70.84;97881.23;115489;1199;25780;-81
2021/10/10 01:45:01;;;;;;;15.50;8.30;;;;;;;1.60;71.03;97883.41;115587;1199;31071;-81
2021/10/10 01:47:32;;;;;;;16.60;9.30;;;;;;;1.64;70.79;97881.85;115395;1192;27521;-80
2021/10/10 01:50:03;;;;;;;18.30;9.10;;;;;;;1.65;70.78;97879.48;115638;1199;25778;-81
2021/10/10 01:52:34;;;;;;;17.20;10.00;;;;;;;1.55;70.77;97883.00;115536;1199;35857;-80
2021/10/10 01:55:05;;;;;;;16.90;10.20;;;;;;;1.44;70.94;97885.57;115434;1199;26312;-79
2021/10/10 01:57:36;;;;;;;20.50;11.10;;;;;;;1.41;70.96;97886.59;115188;1200;39774;-81
2021/10/10 02:00:10;;;;;;;18.40;9.80;;;;;;;1.41;70.95;97884.94;115230;1200;66550;-80
2021/10/10 02:02:41;;;;;;;16.30;8.90;;;;;;;1.44;71.02;97885.70;115476;1199;28736;-80
2021/10/10 02:05:13;;;;;;;17.70;10.00;;;;;;;1.39;70.63;97882.67;115517;1198;29711;-81
2021/10/10 02:07:44;;;;;;;19.80;10.60;;;;;;;1.37;70.87;97876.52;115612;1198;29958;-80
2021/10/10 02:10:14;;;;;;;18.00;9.80;;;;;;;1.42;70.92;97877.31;115482;1199;32689;-81
2021/10/10 02:12:45;;;;;;;14.60;8.70;;;;;;;1.48;71.28;97875.83;115655;1199;26490;-81
2021/10/10 02:15:16;;;;;;;18.10;8.70;;;;;;;1.55;71.08;97878.34;115252;1200;29616;-80
2021/10/10 02:17:47;;;;;;;17.60;9.20;;;;;;;1.57;70.93;97875.42;115611;1199;29648;-81
2021/10/10 02:20:18;;;;;;;19.10;10.30;;;;;;;1.59;71.10;97875.03;115702;1199;27258;-81
2021/10/10 02:22:48;;;;;;;15.20;9.20;;;;;;;1.62;71.00;97876.25;115638;1193;30489;-80
2021/10/10 02:25:19;;;;;;;17.60;9.60;;;;;;;1.55;71.09;97876.89;115644;1199;40714;-80
2021/10/10 02:27:50;;;;;;;17.50;10.30;;;;;;;1.44;71.52;97875.84;115599;1199;27127;-78
2021/10/10 02:30:21;;;;;;;22.00;10.70;;;;;;;1.32;71.64;97876.62;115579;1199;32666;-80
2021/10/10 02:32:52;;;;;;;16.40;9.70;;;;;;;1.23;71.79;97873.69;115602;1199;34128;-80
2021/10/10 02:35:23;;;;;;;16.80;10.10;;;;;;;1.18;71.76;97874.65;115467;1199;43101;-80
2021/10/10 02:37:53;;;;;;;17.90;10.60;;;;;;;1.24;71.94;97876.02;115583;1199;28893;-80
2021/10/10 02:40:24;;;;;;;16.40;8.90;;;;;;;1.31;71.87;97879.75;115618;1199;31111;-81
2021/10/10 02:42:55;;;;;;;20.00;8.60;;;;;;;1.28;71.89;97877.34;115628;1199;28606;-81
2021/10/10 02:45:26;;;;;;;14.20;8.30;;;;;;;1.23;72.19;97875.85;115579;1192;31279;-80
2021/10/10 02:47:56;;;;;;;17.70;9.70;;;;;;;1.17;72.01;97876.14;115564;1199;27733;-81
2021/10/10 02:50:28;;;;;;;17.00;9.50;;;;;;;1.18;72.22;97874.33;115561;1192;28894;-80
2021/10/10 02:52:58;;;;;;;16.70;9.40;;;;;;;1.19;72.29;97874.90;115562;1192;31010;-80
2021/10/10 02:55:29;;;;;;;17.20;9.90;;;;;;;1.23;72.34;97874.00;115624;1198;43343;-80
2021/10/10 02:58:01;;;;;;;18.30;9.80;;;;;;;1.23;71.97;97873.52;115626;1199;31621;-81
2021/10/10 03:00:31;;;;;;;19.60;10.60;;;;;;;1.17;71.84;97872.80;115567;1199;33092;-81
2021/10/10 03:03:02;;;;;;;20.30;10.70;;;;;;;1.14;71.90;97866.95;115572;1198;33062;-81
2021/10/10 03:05:33;;;;;;;19.10;11.40;;;;;;;1.10;72.16;97863.95;115631;1199;28905;-82
2021/10/10 03:08:04;;;;;;;17.20;9.50;;;;;;;1.10;72.37;97865.20;115601;1191;28151;-80
2021/10/10 03:10:35;;;;;;;18.10;9.70;;;;;;;1.10;72.49;97865.36;115528;1199;35032;-80
2021/10/10 03:13:05;;;;;;;17.30;8.80;;;;;;;1.08;72.44;97865.30;115525;1199;33915;-80
2021/10/10 03:15:37;;;;;;;19.50;9.60;;;;;;;1.00;72.28;97864.36;115573;1199;27500;-80
2021/10/10 03:18:08;;;;;;;19.40;9.90;;;;;;;0.88;72.38;97866.85;115522;1199;26290;-81
2021/10/10 03:20:39;;;;;;;22.60;11.10;;;;;;;0.82;72.69;97861.40;115540;1192;31081;-80
2021/10/10 03:23:10;;;;;;;20.70;10.80;;;;;;;0.89;72.92;97859.75;115602;1199;30976;-80
2021/10/10 03:25:41;;;;;;;16.80;10.20;;;;;;;0.98;72.72;97854.42;115569;1198;39714;-82
2021/10/10 03:28:11;;;;;;;15.20;10.10;;;;;;;1.03;72.68;97857.12;115563;1199;31853;-81
2021/10/10 03:30:42;;;;;;;19.30;10.10;;;;;;;0.95;72.52;97852.02;115574;1198;28870;-81
2021/10/10 03:33:13;;;;;;;17.60;10.00;;;;;;;0.90;72.53;97851.45;115567;1199;28464;-80
2021/10/10 03:35:44;;;;;;;20.80;10.60;;;;;;;0.91;72.81;97848.52;115459;1199;30327;-81
2021/10/10 03:38:14;;;;;;;17.10;9.30;;;;;;;0.85;72.86;97844.20;115586;1199;29473;-81
2021/10/10 03:40:45;;;;;;;17.90;9.50;;;;;;;0.80;72.95;97847.24;115268;1193;28589;-81
2021/10/10 03:43:16;;;;;;;16.00;9.80;;;;;;;0.76;73.20;97839.90;115250;1200;42032;-80
2021/10/10 03:45:47;;;;;;;19.20;9.60;;;;;;;0.83;73.11;97838.16;115353;1185;25096;-80
2021/10/10 03:48:18;;;;;;;17.30;10.30;;;;;;;0.89;73.34;97836.94;115209;1193;38742;-80
2021/10/10 03:50:48;;;;;;;16.70;9.90;;;;;;;0.87;73.37;97834.77;115531;1199;33469;-81
2021/10/10 03:53:21;;;;;;;19.70;10.70;;;;;;;0.87;73.32;97831.66;115550;1192;29958;-80
2021/10/10 03:55:52;;;;;;;19.90;10.90;;;;;;;0.79;73.29;97834.17;115510;1198;48741;-80
2021/10/10 03:58:23;;;;;;;17.00;10.30;;;;;;;0.66;73.61;97835.73;115386;1199;29341;-80
2021/10/10 04:00:53;;;;;;;19.20;11.00;;;;;;;0.56;73.93;97839.57;115500;1192;30521;-80
2021/10/10 04:03:24;;;;;;;19.60;10.80;;;;;;;0.47;74.09;97835.45;115515;1198;28185;-80
2021/10/10 04:05:55;;;;;;;20.60;10.80;;;;;;;0.45;74.62;97837.61;115516;1199;28025;-81
2021/10/10 04:08:26;;;;;;;18.40;10.20;;;;;;;0.47;74.96;97835.38;115556;1199;28257;-79
2021/10/10 04:10:57;;;;;;;18.60;10.00;;;;;;;0.54;74.52;97831.35;115490;1199;28914;-80
2021/10/10 04:13:28;;;;;;;18.00;9.90;;;;;;;0.60;74.30;97829.98;115385;1199;46915;-80
2021/10/10 04:15:58;;;;;;;17.50;10.20;;;;;;;0.66;74.14;97834.53;115452;1199;29667;-80
2021/10/10 04:18:30;;;;;;;20.10;9.90;;;;;;;0.75;74.29;97834.64;115409;1184;28051;-81
2021/10/10 04:21:01;;;;;;;19.00;10.10;;;;;;;0.73;74.27;97834.93;114126;1200;1333732;-78
2021/10/10 04:23:32;;;;;;;20.10;11.20;;;;;;;0.64;74.08;97834.30;115171;1200;59581;-78
2021/10/10 04:26:04;;;;;;;19.50;10.00;;;;;;;0.60;73.92;97831.55;115349;1192;60548;-78
2021/10/10 04:28:35;;;;;;;18.30;10.40;;;;;;;0.72;74.07;97826.89;115445;1199;57877;-80
2021/10/10 04:31:05;;;;;;;23.10;10.10;;;;;;;0.76;73.72;97822.31;115312;1199;77480;-80
2021/10/10 04:33:36;;;;;;;19.00;10.50;;;;;;;0.73;73.60;97821.04;115402;1199;56694;-79
2021/10/10 04:36:08;;;;;;;19.20;10.30;;;;;;;0.70;73.81;97822.24;115386;1199;67126;-80
2021/10/10 04:38:39;;;;;;;17.30;8.80;;;;;;;0.64;73.57;97818.48;115452;1186;58613;-80
2021/10/10 04:41:12;;;;;;;17.30;10.10;;;;;;;0.49;74.13;97824.39;115540;1192;57517;-80
2021/10/10 04:43:43;;;;;;;17.40;10.60;;;;;;;0.30;74.27;97829.41;115192;1200;69501;-79
2021/10/10 04:46:14;;;;;;;18.60;10.80;;;;;;;0.18;74.54;97829.11;115460;1198;62055;-80
2021/10/10 04:48:45;;;;;;;19.20;11.40;;;;;;;0.17;75.34;97831.94;115501;1199;70562;-80
2021/10/10 04:51:16;;;;;;;18.50;10.50;;;;;;;0.19;75.39;97827.80;115408;1198;67237;-79
2021/10/10 04:53:47;;;;;;;23.20;10.10;;;;;;;0.29;75.83;97830.44;115459;1199;67668;-80
2021/10/10 04:56:19;;;;;;;21.80;11.50;;;;;;;0.39;75.58;97829.66;115452;1199;64496;-80
2021/10/10 04:58:52;;;;;;;22.90;11.30;;;;;;;0.49;75.41;97829.82;115453;1198;63475;-79
2021/10/10 05:01:23;;;;;;;17.90;10.40;;;;;;;0.53;75.45;97830.10;115133;1200;61312;-79
2021/10/10 05:03:54;;;;;;;21.40;11.10;;;;;;;0.62;75.14;97830.64;115357;1199;65355;-81
2021/10/10 05:06:26;;;;;;;18.50;10.80;;;;;;;0.71;74.88;97830.81;115433;1199;65847;-79
2021/10/10 05:08:57;;;;;;;16.10;10.40;;;;;;;0.75;74.83;97828.27;115416;1192;58152;-80
2021/10/10 05:11:29;;;;;;;19.30;10.80;;;;;;;0.91;74.42;97831.02;115393;1198;73173;-80
2021/10/10 05:14:00;;;;;;;18.30;10.30;;;;;;;1.05;74.63;97833.77;115441;1198;70359;-78
2021/10/10 05:16:31;;;;;;;17.10;9.40;;;;;;;1.21;74.40;97827.59;115442;1199;52468;-79
2021/10/10 05:19:02;;;;;;;17.70;10.30;;;;;;;1.50;74.54;97824.17;115450;1198;56187;-80
2021/10/10 05:21:33;;;;;;;16.90;10.20;;;;;;;2.02;74.72;97824.29;115008;1200;63355;-80
2021/10/10 05:24:04;;;;;;;17.40;10.80;;;;;;;2.64;74.18;97823.11;115275;1199;70562;-80
2021/10/10 05:26:35;;;;;;;25.40;14.60;;;;;;;3.17;73.50;97819.52;115301;1199;60692;-80
2021/10/10 05:29:07;;;;;;;36.50;19.70;;;;;;;3.74;73.18;97821.54;115398;1199;76195;-78
2021/10/10 05:31:38;;;;;;;47.90;23.40;;;;;;;4.39;72.35;97819.93;115344;1199;68226;-79
2021/10/10 05:34:09;;;;;;;44.50;24.60;;;;;;;4.68;70.40;97816.77;114046;1199;1680888;-80
2021/10/10 05:36:40;;;;;;;28.30;16.40;;;;;;;4.90;69.73;97817.28;115319;1199;74778;-81
2021/10/10 05:39:11;;;;;;;23.00;13.40;;;;;;;5.25;69.05;97820.48;115493;1192;32134;-81
2021/10/10 05:41:42;;;;;;;22.60;12.90;;;;;;;5.61;68.26;97819.77;115475;1199;32185;-81
2021/10/10 05:44:14;;;;;;;24.40;14.30;;;;;;;5.95;67.52;97824.27;115230;1200;57836;-82
2021/10/10 05:46:46;;;;;;;19.80;13.10;;;;;;;6.36;67.53;97826.98;115500;1199;28225;-81
2021/10/10 05:49:18;;;;;;;21.20;11.90;;;;;;;7.10;67.81;97826.88;115499;1192;26112;-82
2021/10/10 05:51:50;;;;;;;18.90;12.30;;;;;;;7.98;67.44;97823.06;115531;1199;28032;-80
2021/10/10 05:54:22;;;;;;;19.10;12.20;;;;;;;8.81;65.80;97813.98;115462;1192;28448;-80
2021/10/10 05:56:53;;;;;;;22.20;13.20;;;;;;;9.13;63.28;97814.45;115513;1199;27134;-81
2021/10/10 05:59:24;;;;;;;22.60;13.00;;;;;;;9.52;64.11;97812.32;115339;1199;28117;-80
2021/10/10 06:01:55;;;;;;;23.60;13.10;;;;;;;10.33;63.42;97812.39;115416;1199;32200;-80
2021/10/10 06:04:26;;;;;;;21.50;12.90;;;;;;;10.95;62.60;97814.99;115268;1192;29282;-81
2021/10/10 06:06:57;;;;;;;22.20;13.40;;;;;;;11.57;61.85;97803.41;115389;1198;64667;-80
2021/10/10 06:09:28;;;;;;;20.30;13.10;;;;;;;12.23;60.85;97806.12;115369;1199;27552;-80
2021/10/10 06:12:00;;;;;;;25.80;16.30;;;;;;;12.59;59.36;97807.21;115431;1199;29206;-81
2021/10/10 06:14:31;;;;;;;30.30;21.60;;;;;;;12.56;58.11;97804.85;115457;1192;32977;-81
2021/10/10 06:17:02;;;;;;;27.70;19.30;;;;;;;12.40;57.38;97798.73;115512;1192;28843;-81
2021/10/10 06:19:36;;;;;;;25.70;17.50;;;;;;;12.96;57.45;97794.89;115500;1199;27496;-81
2021/10/10 06:22:07;;;;;;;20.70;14.40;;;;;;;13.18;55.90;97798.83;115505;1199;26922;-81
2021/10/10 06:24:38;;;;;;;22.80;13.30;;;;;;;13.12;54.76;97799.98;115323;1200;32122;-81
2021/10/10 06:27:08;;;;;;;17.60;12.30;;;;;;;13.01;54.20;97803.85;115540;1199;28062;-81
2021/10/10 06:29:39;;;;;;;21.70;13.90;;;;;;;13.47;54.43;97804.70;115549;1199;24295;-82
2021/10/10 06:32:10;;;;;;;20.70;13.00;;;;;;;14.08;54.02;97801.19;115475;1199;31390;-81
2021/10/10 06:34:41;;;;;;;21.10;13.70;;;;;;;14.90;53.91;97805.77;115514;1199;78556;-81
2021/10/10 06:37:12;;;;;;;23.30;13.80;;;;;;;15.21;51.89;97807.39;115531;1199;26137;-81
2021/10/10 06:39:43;;;;;;;21.80;14.50;;;;;;;14.77;50.59;97812.95;115397;1199;33156;-81
2021/10/10 06:42:15;;;;;;;21.20;13.90;;;;;;;14.69;50.69;97801.67;115553;1199;26835;-81
2021/10/10 06:44:46;;;;;;;24.50;13.90;;;;;;;14.95;50.44;97793.94;115511;1199;67555;-82
2021/10/10 06:47:17;;;;;;;21.00;13.70;;;;;;;15.45;50.13;97794.11;115520;1199;47500;-82
2021/10/10 06:49:48;;;;;;;22.30;13.70;;;;;;;15.98;49.84;97791.65;115489;1199;28559;-81
2021/10/10 06:52:19;;;;;;;23.10;13.60;;;;;;;16.44;48.29;97793.91;115462;1199;25534;-81
2021/10/10 06:54:51;;;;;;;21.50;14.60;;;;;;;16.63;47.59;97796.40;115292;1199;59922;-80
2021/10/10 06:57:22;;;;;;;23.30;13.70;;;;;;;16.39;46.58;97793.02;115260;1199;67675;-81
2021/10/10 06:59:55;;;;;;;24.00;14.70;;;;;;;16.52;46.64;97789.84;115479;1199;47692;-81
2021/10/10 07:02:26;;;;;;;23.50;13.40;;;;;;;16.07;45.65;97787.91;115263;1200;31527;-81
2021/10/10 07:04:58;;;;;;;26.50;15.00;;;;;;;15.80;45.70;97788.20;115304;1200;29302;-81
2021/10/10 07:07:29;;;;;;;29.00;14.70;;;;;;;15.65;45.93;97793.85;115463;1192;29757;-81
2021/10/10 07:10:00;;;;;;;24.50;14.50;;;;;;;16.19;46.66;97792.05;115458;1192;28006;-82
2021/10/10 07:12:31;;;;;;;21.80;13.90;;;;;;;17.19;46.77;97787.95;115442;1199;89957;-81
2021/10/10 07:15:03;;;;;;;25.90;15.90;;;;;;;17.95;44.85;97785.26;115530;1193;37216;-80
2021/10/10 07:17:34;;;;;;;27.10;16.40;;;;;;;17.52;43.30;97781.75;115472;1199;44912;-81
2021/10/10 07:20:10;;;;;;;27.10;15.40;;;;;;;17.49;44.04;97780.84;115503;1199;29780;-81
2021/10/10 07:25:16;;;;;;;24.30;15.20;;;;;;;17.79;41.07;97788.77;115376;1186;25775;-86
2021/10/10 07:27:48;;;;;;;27.40;16.10;;;;;;;16.08;40.61;97789.86;115576;1197;26422;-87
2021/10/10 07:30:19;;;;;;;26.70;17.00;;;;;;;15.16;41.83;97794.33;115646;1190;32669;-84
2021/10/10 07:32:50;;;;;;;26.70;15.90;;;;;;;15.02;43.54;97792.03;115680;1198;28368;-86
2021/10/10 07:35:21;;;;;;;25.40;16.10;;;;;;;15.44;43.61;97796.58;115639;1198;30793;-86
2021/10/10 07:37:55;;;;;;;24.60;16.70;;;;;;;14.71;42.17;97797.44;115649;1198;30554;-87
2021/10/10 07:40:26;;;;;;;28.20;16.30;;;;;;;13.84;42.73;97795.06;115645;1198;26870;-86
2021/10/10 07:42:57;;;;;;;30.10;15.70;;;;;;;13.81;44.49;97794.11;115660;1198;30194;-86
2021/10/10 07:45:28;;;;;;;26.00;15.00;;;;;;;14.06;44.39;97792.77;115688;1198;27589;-86
2021/10/10 07:48:02;;;;;;;25.80;16.10;;;;;;;14.28;44.75;97793.98;115715;1191;26752;-87
2021/10/10 07:50:34;;;;;;;24.60;14.90;;;;;;;14.44;44.96;97795.27;115642;1198;31651;-87
2021/10/10 07:53:05;;;;;;;27.60;16.00;;;;;;;14.82;44.72;97794.70;115658;1198;30618;-87
2021/10/10 07:55:36;;;;;;;27.10;16.40;;;;;;;14.55;43.91;97794.41;115598;1191;34008;-87
2021/10/10 07:58:08;;;;;;;27.50;15.90;;;;;;;14.26;44.13;97793.93;115596;1198;29040;-88
2021/10/10 08:00:40;;;;;;;25.50;16.90;;;;;;;13.38;43.40;97791.73;115616;1198;29315;-89
2021/10/10 08:03:14;;;;;;;29.90;16.70;;;;;;;13.05;44.95;97789.95;112656;1198;2040026;-85
2021/10/10 08:05:46;;;;;;;26.50;15.50;;;;;;;13.09;45.58;97783.67;115570;1198;27507;-87
2021/10/10 08:08:17;;;;;;;27.20;17.10;;;;;;;13.21;45.48;97791.92;115603;1198;28559;-88
2021/10/10 08:10:50;;;;;;;27.40;16.10;;;;;;;12.94;45.48;97791.54;115556;1197;30156;-87
2021/10/10 08:13:21;;;;;;;26.00;15.50;;;;;;;12.57;45.13;97794.80;115592;1198;28704;-87
2021/10/10 08:15:52;;;;;;;27.70;16.40;;;;;;;12.03;45.74;97798.78;115686;1198;31708;-87
2021/10/10 08:18:25;;;;;;;25.30;16.60;;;;;;;11.94;46.06;97796.98;115681;1192;28215;-85
2021/10/10 08:20:56;;;;;;;27.60;17.30;;;;;;;11.39;45.86;97794.77;115613;1198;31420;-87
2021/10/10 08:23:27;;;;;;;22.70;16.00;;;;;;;11.20;47.01;97798.07;115713;1198;30258;-86
2021/10/10 08:25:59;;;;;;;27.40;16.90;;;;;;;11.26;46.70;97789.84;115687;1198;26817;-86
2021/10/10 08:28:30;;;;;;;28.10;17.40;;;;;;;11.26;47.31;97789.16;115688;1193;28336;-87
2021/10/10 08:31:00;;;;;;;29.10;18.30;;;;;;;11.18;46.91;97784.96;115634;1178;25657;-87
2021/10/10 08:33:31;;;;;;;28.50;18.20;;;;;;;10.88;47.71;97786.48;115641;1193;27651;-87
2021/10/10 08:36:03;;;;;;;29.80;17.50;;;;;;;11.04;48.28;97780.36;115503;1199;32760;-87
2021/10/10 08:38:34;;;;;;;26.00;17.20;;;;;;;11.00;48.15;97784.67;115422;1199;27253;-87
2021/10/10 08:41:07;;;;;;;26.50;17.10;;;;;;;11.08;49.25;97779.81;115368;1192;27132;-88
2021/10/10 08:43:40;;;;;;;28.50;17.40;;;;;;;11.28;48.96;97779.51;115433;1199;28696;-87
2021/10/10 08:46:14;;;;;;;29.30;18.00;;;;;;;11.00;48.56;97778.25;115315;1200;26686;-87
2021/10/10 08:48:45;;;;;;;31.70;18.00;;;;;;;10.36;48.40;97780.55;115293;1193;34599;-88
2021/10/10 08:51:16;;;;;;;29.40;18.30;;;;;;;9.92;49.67;97778.25;115405;1199;26716;-87
2021/10/10 08:53:48;;;;;;;31.20;17.90;;;;;;;10.05;51.06;97779.63;115472;1198;30423;-87
2021/10/10 08:56:20;;;;;;;29.60;17.40;;;;;;;10.30;50.59;97781.73;115558;1193;27712;-87
2021/10/10 08:58:52;;;;;;;24.50;16.30;;;;;;;10.30;50.84;97779.24;115529;1198;29766;-87
2021/10/10 09:01:29;;;;;;;28.10;17.70;;;;;;;10.34;50.82;97772.02;115573;1184;29427;-87
2021/10/10 09:04:00;;;;;;;26.00;16.90;;;;;;;10.40;51.69;97765.70;115631;1198;29878;-87
2021/10/10 09:06:33;;;;;;;29.10;17.20;;;;;;;10.46;51.76;97761.08;115593;1198;29032;-87
2021/10/10 09:09:31;;;;;;;29.50;18.00;;;;;;;10.45;51.71;97760.27;115568;1198;26670;-86
2021/10/10 09:12:04;;;;;;;28.20;16.60;;;;;;;10.38;52.15;97761.83;115588;1191;36505;-87
2021/10/10 09:14:46;;;;;;;28.30;17.70;;;;;;;10.42;52.28;97759.86;115555;1198;28187;-87
2021/10/10 09:17:19;;;;;;;32.10;17.80;;;;;;;10.53;52.40;97759.81;115554;1184;30477;-87
2021/10/10 09:19:56;;;;;;;28.80;17.90;;;;;;;10.65;52.36;97753.79;115528;1198;27349;-87
2021/10/10 09:22:28;;;;;;;32.60;17.80;;;;;;;10.67;52.40;97751.15;115589;1198;23931;-87
2021/10/10 09:25:11;;;;;;;27.00;17.10;;;;;;;10.78;52.58;97753.33;115597;1198;26392;-87
2021/10/10 09:27:42;;;;;;;30.70;18.00;;;;;;;10.95;53.00;97748.23;115521;1198;34915;-87
2021/10/10 09:30:13;;;;;;;26.90;17.50;;;;;;;11.08;53.06;97747.60;115562;1198;26705;-87
2021/10/10 09:32:46;;;;;;;33.60;18.00;;;;;;;11.16;52.38;97741.89;115555;1198;30295;-86
2021/10/10 09:35:29;;;;;;;25.70;15.80;;;;;;;11.13;52.35;97742.92;115508;1192;28217;-87
2021/10/10 09:38:14;;;;;;;29.00;17.20;;;;;;;11.10;51.94;97744.27;115655;1198;29931;-87
2021/10/10 09:40:51;;;;;;;27.80;16.90;;;;;;;10.74;51.16;97740.83;115580;1198;27655;-87
2021/10/10 09:43:22;;;;;;;31.00;17.00;;;;;;;10.72;52.24;97737.31;115583;1198;43991;-85
2021/10/10 09:45:54;;;;;;;30.50;18.70;;;;;;;10.88;52.71;97735.70;115627;1198;26456;-85
2021/10/10 09:48:38;;;;;;;26.20;16.90;;;;;;;11.00;53.00;97730.39;115603;1192;26026;-84
2021/10/10 09:51:09;;;;;;;32.50;17.60;;;;;;;11.17;52.90;97729.46;115536;1198;26532;-84
2021/10/10 09:53:41;;;;;;;30.00;17.50;;;;;;;11.18;52.61;97731.44;115545;1198;61397;-85
2021/10/10 09:56:12;;;;;;;29.90;17.80;;;;;;;11.24;52.73;97728.40;115510;1198;58550;-85
2021/10/10 09:58:44;;;;;;;32.10;17.30;;;;;;;11.27;52.66;97728.39;115559;1193;58792;-85
2021/10/10 10:01:19;;;;;;;28.20;17.50;;;;;;;11.30;52.95;97725.91;115556;1198;56790;-85
2021/10/10 10:04:04;;;;;;;29.20;18.30;;;;;;;11.40;53.12;97720.75;115595;1198;28818;-84
2021/10/10 10:06:37;;;;;;;29.30;17.80;;;;;;;11.53;53.39;97720.90;115552;1198;35308;-84
2021/10/10 10:09:10;;;;;;;28.40;18.30;;;;;;;11.63;52.87;97720.20;115550;1198;53934;-84
2021/10/10 10:11:43;;;;;;;32.00;18.50;;;;;;;11.61;52.73;97720.30;115578;1198;56078;-85
2021/10/10 10:14:17;;;;;;;26.50;16.40;;;;;;;11.65;52.55;97720.69;115540;1198;54248;-87
2021/10/10 10:16:49;;;;;;;24.10;14.70;;;;;;;11.68;52.05;97720.01;115484;1198;34786;-85
2021/10/10 10:19:22;;;;;;;24.00;14.40;;;;;;;11.69;51.68;97720.73;115573;1198;44663;-86
2021/10/10 10:21:56;;;;;;;24.00;14.50;;;;;;;11.40;50.55;97723.63;115556;1198;27467;-86
2021/10/10 10:24:30;;;;;;;22.60;13.50;;;;;;;11.28;51.04;97721.59;115608;1184;27460;-85
2021/10/10 10:27:01;;;;;;;25.50;12.00;;;;;;;11.39;51.32;97716.88;115591;1198;49273;-86
2021/10/10 10:29:35;;;;;;;22.10;12.70;;;;;;;11.52;50.91;97717.80;115535;1190;54405;-85
2021/10/10 10:32:10;;;;;;;21.80;12.50;;;;;;;11.55;50.86;97716.93;115507;1198;50035;-85
2021/10/10 10:34:56;;;;;;;21.30;13.60;;;;;;;11.48;50.03;97714.80;115573;1198;51881;-84
2021/10/10 10:37:55;;;;;;;18.80;12.50;;;;;;;11.39;50.55;97710.45;115569;1193;30487;-84
2021/10/10 10:40:46;;;;;;;17.20;11.90;;;;;;;11.55;50.73;97709.44;115655;1198;26333;-87
2021/10/10 10:43:34;;;;;;;21.20;12.60;;;;;;;11.71;50.61;97707.39;115591;1198;50464;-86
2021/10/10 10:46:09;;;;;;;21.60;12.30;;;;;;;11.82;50.62;97703.81;115554;1198;54536;-86
2021/10/10 10:48:40;;;;;;;21.10;12.80;;;;;;;11.82;50.00;97699.30;115544;1198;22796;-86
2021/10/10 10:51:28;;;;;;;21.00;12.60;;;;;;;11.77;50.31;97704.13;115557;1198;26341;-87
2021/10/10 10:54:30;;;;;;;24.50;11.90;;;;;;;11.73;50.10;97698.23;115680;1198;25003;-86
2021/10/10 10:57:01;;;;;;;22.40;11.50;;;;;;;11.60;50.06;97698.15;115597;1198;23958;-87
2021/10/10 11:00:01;;;;;;;20.70;12.10;;;;;;;11.59;50.02;97695.60;115606;1198;25986;-87
2021/10/10 11:03:01;;;;;;;21.70;12.40;;;;;;;11.61;50.07;97700.76;115576;1198;34323;-86
2021/10/10 11:05:38;;;;;;;22.10;12.40;;;;;;;11.61;50.09;97694.96;115559;1199;44330;-86
2021/10/10 11:08:30;;;;;;;21.30;12.50;;;;;;;11.71;50.05;97691.57;115508;1199;60482;-87
2021/10/10 11:11:15;;;;;;;24.00;12.90;;;;;;;11.84;50.17;97690.27;115616;1191;29907;-87
2021/10/10 11:13:49;;;;;;;21.80;12.30;;;;;;;11.98;50.25;97685.77;115612;1198;26284;-86
2021/10/10 11:16:29;;;;;;;24.20;13.00;;;;;;;12.09;50.11;97686.27;115556;1198;26462;-87
2021/10/10 11:19:04;;;;;;;;;;;;;;;12.14;49.99;97690.45;115688;1198;27421;-86
2021/10/10 11:21:37;;;;;;;23.00;13.00;;;;;;;12.11;49.17;97695.00;115573;1198;34871;-85
2021/10/10 11:24:12;;;;;;;21.70;12.10;;;;;;;11.97;49.26;97692.45;115605;1193;55539;-86
2021/10/10 11:26:43;;;;;;;23.50;13.60;;;;;;;12.08;49.95;97692.33;115606;1198;24588;-87
2021/10/10 11:29:16;;;;;;;23.40;12.20;;;;;;;12.23;49.79;97693.86;115524;1198;27342;-87
2021/10/10 11:31:49;;;;;;;21.60;13.70;;;;;;;12.42;49.89;97694.23;115611;1198;25886;-86
2021/10/10 11:34:24;;;;;;;23.60;13.00;;;;;;;12.44;49.21;97699.45;115614;1198;38990;-86
2021/10/10 11:36:57;;;;;;;25.50;13.60;;;;;;;12.42;49.15;97694.88;115638;1198;27356;-86
2021/10/10 11:39:30;;;;;;;24.90;12.40;;;;;;;12.41;49.37;97694.92;115680;1198;28782;-87
2021/10/10 11:42:04;;;;;;;19.90;13.80;;;;;;;12.21;48.64;97698.16;115670;1198;27951;-86